Main page
METAR-TAF:

METAR-TAF

Airports :

Aeroflex–Andover Airport

Andover, New Jersey, United States

latitude: 41-00-32N, longitude: 074-44-12W, elevation: 581 ft

Current weather observation

The report was made 23 minutes ago, at 09:54 UTC
Calm wind
Temperature 45°F
Humidity 87%
Pressure 30.19 in. Hg

METAR: K12N 220954Z AUTO 00000KT 07/05 A3019 RMK AO1 SLP224 T00670050

Time: 06:17 (10:17 UTC)


TAF: missing

Weather observations and forecasts of more than 4000 airports (METAR and TAF reports).

The available stations are represented by yellow and red dots on the map.

Hover mouse over dot to see the name of the station.

Then click to see weather observations and forecasts.

To change the map : click on the green buttons with a black cross to zoom in, on the green button with a dash to zoom out, or on the green arrows for adjacent maps.


METAR-TAF: